Time;durP1;ratioP1;P1;durP2;ratioP2;P2;SDS_P1;SDS_P2;PMS_P1;PMS_P2;Temp;Humidity;BMP_temperature;BMP_pressure;BME280_temperature;BME280_humidity;BME280_pressure;Samples;Min_cycle;Max_cycle;Signal;HPM_P1;HPM_P2
2021/08/19 00:00:33;;;;;;;6.00;4.30;;;;;;;;;;5049922;28;20602;-72
2021/08/19 00:02:58;;;;;;;7.20;4.30;;;;;;;;;;5049980;28;20188;-72
2021/08/19 00:05:24;;;;;;;5.00;4.50;;;;;;;;;;5055237;28;20215;-74
2021/08/19 00:07:49;;;;;;;5.17;4.50;;;;;;;;;;5055371;28;20233;-73
2021/08/19 00:10:14;;;;;;;5.87;4.27;;;;;;;;;;5059282;28;20190;-74
2021/08/19 00:12:40;;;;;;;6.00;3.80;;;;;;;;;;5060599;28;20205;-73
2021/08/19 00:15:05;;;;;;;5.80;5.03;;;;;;;;;;5054351;28;20179;-73
2021/08/19 00:17:31;;;;;;;5.80;4.73;;;;;;;;;;5053449;28;20208;-74
2021/08/19 00:19:56;;;;;;;6.00;3.90;;;;;;;;;;5054368;28;20182;-73
2021/08/19 00:22:21;;;;;;;10.23;5.40;;;;;;;;;;5056619;28;20671;-73
2021/08/19 00:24:46;;;;;;;8.73;4.43;;;;;;;;;;5061098;28;20214;-73
2021/08/19 00:27:12;;;;;;;7.90;5.03;;;;;;;;;;5056833;28;20196;-73
2021/08/19 00:29:37;;;;;;;4.93;4.43;;;;;;;;;;5054579;28;20183;-73
2021/08/19 00:32:03;;;;;;;10.47;4.50;;;;;;;;;;5053543;28;20258;-74
2021/08/19 00:34:29;;;;;;;6.77;4.83;;;;;;;;;;5055674;28;20179;-73
2021/08/19 00:36:54;;;;;;;7.33;4.50;;;;;;;;;;5050209;28;20457;-73
2021/08/19 00:39:19;;;;;;;4.97;4.13;;;;;;;;;;5059642;28;20184;-73
2021/08/19 00:41:44;;;;;;;6.10;4.50;;;;;;;;;;5060711;28;20188;-73
2021/08/19 00:44:10;;;;;;;8.67;4.40;;;;;;;;;;5059559;28;20228;-73
2021/08/19 00:46:36;;;;;;;11.23;4.20;;;;;;;;;;5059110;28;20266;-73
2021/08/19 00:49:02;;;;;;;8.83;4.07;;;;;;;;;;5057332;28;20182;-73
2021/08/19 00:51:31;;;;;;;6.00;4.57;;;;;;;;;;5054594;28;20434;-73
2021/08/19 00:53:57;;;;;;;6.87;4.40;;;;;;;;;;5054161;28;20458;-74
2021/08/19 00:56:22;;;;;;;5.20;3.80;;;;;;;;;;5060635;28;20488;-73
2021/08/19 00:58:48;;;;;;;4.20;3.80;;;;;;;;;;5057096;28;20176;-73
2021/08/19 01:01:13;;;;;;;5.00;3.70;;;;;;;;;;5054317;28;20257;-74
2021/08/19 01:03:38;;;;;;;9.67;3.70;;;;;;;;;;5058036;28;20550;-74
2021/08/19 01:06:04;;;;;;;10.63;4.00;;;;;;;;;;5055708;28;20590;-74
2021/08/19 01:08:29;;;;;;;12.47;4.43;;;;;;;;;;5051894;28;20259;-74
2021/08/19 01:10:54;;;;;;;5.20;4.70;;;;;;;;;;5053639;28;20172;-74
2021/08/19 01:13:20;;;;;;;8.80;4.27;;;;;;;;;;5056239;28;20211;-74
2021/08/19 01:15:45;;;;;;;4.03;3.60;;;;;;;;;;5051990;28;20324;-74
2021/08/19 01:18:10;;;;;;;5.67;4.27;;;;;;;;;;5055420;28;20198;-74
2021/08/19 01:20:35;;;;;;;5.07;3.63;;;;;;;;;;5055223;28;20663;-74
2021/08/19 01:23:01;;;;;;;7.40;4.27;;;;;;;;;;5051786;28;20182;-74
2021/08/19 01:25:27;;;;;;;4.40;3.80;;;;;;;;;;5056316;28;20499;-74
2021/08/19 01:27:53;;;;;;;4.20;3.47;;;;;;;;;;5051720;28;20666;-74
2021/08/19 01:30:19;;;;;;;6.80;4.43;;;;;;;;;;5054619;28;20507;-74
2021/08/19 01:32:44;;;;;;;6.83;4.20;;;;;;;;;;5055228;28;20457;-74
2021/08/19 01:35:09;;;;;;;6.40;4.33;;;;;;;;;;5053868;28;20586;-74
2021/08/19 01:37:35;;;;;;;5.90;3.60;;;;;;;;;;5056873;28;20212;-74
2021/08/19 01:40:00;;;;;;;5.80;3.33;;;;;;;;;;5053003;28;20193;-74
2021/08/19 01:42:25;;;;;;;5.70;4.13;;;;;;;;;;5052730;28;20195;-74
2021/08/19 01:44:50;;;;;;;5.80;4.00;;;;;;;;;;5052794;28;20316;-74
2021/08/19 01:47:17;;;;;;;5.50;3.80;;;;;;;;;;5053354;28;20232;-74
2021/08/19 01:49:42;;;;;;;8.00;3.80;;;;;;;;;;5051998;28;20183;-74
2021/08/19 01:52:09;;;;;;;5.27;4.77;;;;;;;;;;5055357;28;20426;-74
2021/08/19 01:54:34;;;;;;;6.10;3.70;;;;;;;;;;5063166;28;20640;-74
2021/08/19 01:56:59;;;;;;;3.63;3.30;;;;;;;;;;5054241;28;20449;-74
2021/08/19 01:59:26;;;;;;;7.83;3.60;;;;;;;;;;5054553;28;20179;-74
2021/08/19 02:01:51;;;;;;;8.00;3.50;;;;;;;;;;5052220;28;20722;-74
2021/08/19 02:04:16;;;;;;;6.77;3.60;;;;;;;;;;5058368;28;20457;-74
2021/08/19 02:06:41;;;;;;;4.53;3.43;;;;;;;;;;5054917;28;20679;-74
2021/08/19 02:09:07;;;;;;;6.17;3.67;;;;;;;;;;5052483;28;20216;-74
2021/08/19 02:11:32;;;;;;;5.47;3.53;;;;;;;;;;5054680;28;20179;-74
2021/08/19 02:13:57;;;;;;;7.27;3.20;;;;;;;;;;5053989;28;20187;-73
2021/08/19 02:16:23;;;;;;;7.50;3.23;;;;;;;;;;5050703;28;20989;-74
2021/08/19 02:18:48;;;;;;;5.30;3.90;;;;;;;;;;5054533;28;20186;-74
2021/08/19 02:21:14;;;;;;;4.70;3.50;;;;;;;;;;5061718;28;20471;-74
2021/08/19 02:23:39;;;;;;;4.63;3.80;;;;;;;;;;5055990;28;20229;-73
2021/08/19 02:26:04;;;;;;;5.60;3.63;;;;;;;;;;5055940;28;20677;-73
2021/08/19 02:28:30;;;;;;;5.47;3.57;;;;;;;;;;5051764;28;20198;-74
2021/08/19 02:30:56;;;;;;;5.27;3.47;;;;;;;;;;5051923;28;20186;-73
2021/08/19 02:33:21;;;;;;;4.43;3.60;;;;;;;;;;5051335;28;20434;-73
2021/08/19 02:35:47;;;;;;;7.27;4.03;;;;;;;;;;5057428;28;20183;-73
2021/08/19 02:38:14;;;;;;;4.83;3.27;;;;;;;;;;5052647;28;20607;-73
2021/08/19 02:40:40;;;;;;;5.60;3.60;;;;;;;;;;5054993;28;20179;-73
2021/08/19 02:43:06;;;;;;;7.70;4.17;;;;;;;;;;5048141;28;20525;-73
2021/08/19 02:45:31;;;;;;;5.33;3.40;;;;;;;;;;5052930;28;20540;-73
2021/08/19 02:47:56;;;;;;;3.83;3.40;;;;;;;;;;5062125;28;20207;-74
2021/08/19 02:50:23;;;;;;;4.33;3.67;;;;;;;;;;5053412;28;20580;-73
2021/08/19 02:52:48;;;;;;;5.60;3.47;;;;;;;;;;5054805;28;20183;-73
2021/08/19 02:55:13;;;;;;;5.17;3.50;;;;;;;;;;5052041;28;20429;-73
2021/08/19 02:57:38;;;;;;;6.40;3.63;;;;;;;;;;5054051;28;20218;-73
2021/08/19 03:00:04;;;;;;;6.50;3.40;;;;;;;;;;5050989;28;20187;-74
2021/08/19 03:02:29;;;;;;;4.90;3.63;;;;;;;;;;5056117;28;20249;-74
2021/08/19 03:04:55;;;;;;;11.00;3.90;;;;;;;;;;5046751;28;20867;-74
2021/08/19 03:07:20;;;;;;;9.70;3.37;;;;;;;;;;5049354;28;20277;-75
2021/08/19 03:09:45;;;;;;;7.60;3.43;;;;;;;;;;5054791;28;20183;-74
2021/08/19 03:12:11;;;;;;;4.57;3.20;;;;;;;;;;5046428;28;20262;-74
2021/08/19 03:14:37;;;;;;;7.37;3.50;;;;;;;;;;5052011;28;20294;-74
2021/08/19 03:17:02;;;;;;;5.20;4.10;;;;;;;;;;5054040;28;20278;-74
2021/08/19 03:19:28;;;;;;;5.73;3.17;;;;;;;;;;5056892;28;20444;-74
2021/08/19 03:21:53;;;;;;;7.57;3.30;;;;;;;;;;5056270;28;20433;-74
2021/08/19 03:24:19;;;;;;;5.70;3.20;;;;;;;;;;5053807;28;20803;-74
2021/08/19 03:26:44;;;;;;;7.33;3.00;;;;;;;;;;5049508;28;20208;-75
2021/08/19 03:29:09;;;;;;;7.93;3.80;;;;;;;;;;5056704;28;20183;-74
2021/08/19 03:31:35;;;;;;;5.43;3.90;;;;;;;;;;5053992;28;20179;-74
2021/08/19 03:34:00;;;;;;;4.60;4.00;;;;;;;;;;5050841;28;20548;-74
2021/08/19 03:36:25;;;;;;;6.70;3.73;;;;;;;;;;5050104;28;20227;-74
2021/08/19 03:38:51;;;;;;;7.43;3.93;;;;;;;;;;5050358;28;20628;-74
2021/08/19 03:41:16;;;;;;;6.30;4.07;;;;;;;;;;5046923;28;20191;-75
2021/08/19 03:43:41;;;;;;;4.97;3.70;;;;;;;;;;5052003;28;20623;-74
2021/08/19 03:46:07;;;;;;;6.23;3.77;;;;;;;;;;5051456;28;20268;-74
2021/08/19 03:48:32;;;;;;;6.00;3.80;;;;;;;;;;5057428;28;21235;-74
2021/08/19 03:50:58;;;;;;;6.17;3.90;;;;;;;;;;5059040;28;20179;-74
2021/08/19 03:53:23;;;;;;;4.60;3.93;;;;;;;;;;5053247;28;20202;-74
2021/08/19 03:55:48;;;;;;;4.50;3.63;;;;;;;;;;5056443;28;20245;-74
2021/08/19 03:58:13;;;;;;;6.17;3.60;;;;;;;;;;5054352;28;20204;-75
2021/08/19 04:00:39;;;;;;;5.70;4.40;;;;;;;;;;5053621;28;20192;-74
2021/08/19 04:03:04;;;;;;;6.43;4.57;;;;;;;;;;5057050;28;20176;-74
2021/08/19 04:05:29;;;;;;;5.10;4.17;;;;;;;;;;5061167;28;20195;-74
2021/08/19 04:07:54;;;;;;;5.70;3.43;;;;;;;;;;5051785;28;20259;-74
2021/08/19 04:10:20;;;;;;;10.43;5.30;;;;;;;;;;5054110;28;20176;-74
2021/08/19 04:12:45;;;;;;;8.13;4.70;;;;;;;;;;5056392;28;20549;-75
2021/08/19 04:15:13;;;;;;;12.07;5.17;;;;;;;;;;5057990;28;20191;-75
2021/08/19 04:17:41;;;;;;;12.37;5.37;;;;;;;;;;5055199;28;20213;-74
2021/08/19 04:20:07;;;;;;;7.97;5.07;;;;;;;;;;5054366;28;20434;-75
2021/08/19 04:22:32;;;;;;;9.03;6.00;;;;;;;;;;5056296;28;20457;-74
2021/08/19 04:24:57;;;;;;;8.83;5.10;;;;;;;;;;5064338;28;20632;-74
2021/08/19 04:27:23;;;;;;;10.73;5.57;;;;;;;;;;5060410;28;20286;-74
2021/08/19 04:29:48;;;;;;;9.03;6.17;;;;;;;;;;5057776;28;20276;-74
2021/08/19 04:32:13;;;;;;;7.70;6.50;;;;;;;;;;5059348;28;20662;-74
2021/08/19 04:34:38;;;;;;;7.37;5.40;;;;;;;;;;5056531;28;20298;-75
2021/08/19 04:37:04;;;;;;;7.00;6.07;;;;;;;;;;5054518;28;20203;-74
2021/08/19 04:39:29;;;;;;;13.00;7.50;;;;;;;;;;5057772;28;20180;-75
2021/08/19 04:41:54;;;;;;;9.60;6.80;;;;;;;;;;5050350;28;20262;-74
2021/08/19 04:44:19;;;;;;;9.57;6.20;;;;;;;;;;5052175;28;20263;-75
2021/08/19 04:46:47;;;;;;;7.13;5.47;;;;;;;;;;5052030;28;20215;-74
2021/08/19 04:49:12;;;;;;;7.93;6.23;;;;;;;;;;5052930;28;20175;-74
2021/08/19 04:51:37;;;;;;;8.10;7.03;;;;;;;;;;5048568;28;20425;-74
2021/08/19 04:54:03;;;;;;;7.30;6.50;;;;;;;;;;5050256;28;20700;-74
2021/08/19 04:56:30;;;;;;;9.60;6.97;;;;;;;;;;5050512;28;20219;-74
2021/08/19 04:58:56;;;;;;;7.70;6.10;;;;;;;;;;5045897;28;20250;-74
2021/08/19 05:01:21;;;;;;;8.43;6.47;;;;;;;;;;5050343;28;20956;-74
2021/08/19 05:03:46;;;;;;;7.90;6.20;;;;;;;;;;5051895;28;20438;-74
2021/08/19 05:06:11;;;;;;;7.27;6.03;;;;;;;;;;5050898;28;20194;-75
2021/08/19 05:08:37;;;;;;;7.00;6.33;;;;;;;;;;5049720;28;20189;-74
2021/08/19 05:11:02;;;;;;;6.70;5.93;;;;;;;;;;5051386;28;20183;-74
2021/08/19 05:13:29;;;;;;;8.80;5.63;;;;;;;;;;5052977;28;20176;-74
2021/08/19 05:15:55;;;;;;;6.83;6.13;;;;;;;;;;5049619;28;20193;-74
2021/08/19 05:18:20;;;;;;;6.93;5.77;;;;;;;;;;5055258;28;20461;-74
2021/08/19 05:20:45;;;;;;;10.40;6.50;;;;;;;;;;5057972;28;20266;-75
2021/08/19 05:23:10;;;;;;;6.60;5.90;;;;;;;;;;5057890;28;20183;-74
2021/08/19 05:25:36;;;;;;;9.93;7.90;;;;;;;;;;5049707;28;20232;-74
2021/08/19 05:28:01;;;;;;;12.00;7.73;;;;;;;;;;5054772;28;20274;-74
2021/08/19 05:30:26;;;;;;;8.63;6.60;;;;;;;;;;5050118;28;20195;-74
2021/08/19 05:32:51;;;;;;;10.63;7.40;;;;;;;;;;5050652;28;20187;-75
2021/08/19 05:35:17;;;;;;;12.83;8.57;;;;;;;;;;5050871;28;20187;-74
2021/08/19 05:37:45;;;;;;;8.13;7.33;;;;;;;;;;5051514;28;20287;-75
2021/08/19 05:40:11;;;;;;;10.03;7.67;;;;;;;;;;5058039;28;20233;-74
2021/08/19 05:42:36;;;;;;;9.33;7.77;;;;;;;;;;5058916;28;21007;-75
2021/08/19 05:45:01;;;;;;;9.00;7.63;;;;;;;;;;5050699;28;20488;-74
2021/08/19 05:47:27;;;;;;;9.23;7.30;;;;;;;;;;5053440;28;20200;-75
2021/08/19 05:49:52;;;;;;;12.17;7.83;;;;;;;;;;5060040;28;20176;-75
2021/08/19 05:52:17;;;;;;;10.00;8.67;;;;;;;;;;5058509;28;20222;-74
2021/08/19 05:54:43;;;;;;;10.50;9.50;;;;;;;;;;5055751;28;20183;-74
2021/08/19 05:57:08;;;;;;;8.43;7.40;;;;;;;;;;5049247;28;20234;-74
2021/08/19 05:59:34;;;;;;;13.53;9.70;;;;;;;;;;5060339;28;20184;-74
2021/08/19 06:01:59;;;;;;;12.63;8.90;;;;;;;;;;5056913;28;20964;-74
2021/08/19 06:04:24;;;;;;;10.70;9.60;;;;;;;;;;5059786;28;20179;-75
2021/08/19 06:06:49;;;;;;;10.03;9.00;;;;;;;;;;5057636;28;20206;-74
2021/08/19 06:09:15;;;;;;;15.73;11.63;;;;;;;;;;5061146;28;20208;-74
2021/08/19 06:11:41;;;;;;;12.80;10.53;;;;;;;;;;5058360;28;20176;-74
2021/08/19 06:14:06;;;;;;;15.67;11.20;;;;;;;;;;5057560;28;20176;-75
2021/08/19 06:16:31;;;;;;;14.57;10.83;;;;;;;;;;5060764;28;20235;-75
2021/08/19 06:18:57;;;;;;;13.03;11.60;;;;;;;;;;5053011;28;20707;-75
2021/08/19 06:21:23;;;;;;;12.80;10.97;;;;;;;;;;5055789;28;20210;-74
2021/08/19 06:23:48;;;;;;;13.07;11.60;;;;;;;;;;5055994;28;20462;-74
2021/08/19 06:26:13;;;;;;;12.57;10.80;;;;;;;;;;5063980;28;20199;-75
2021/08/19 06:28:38;;;;;;;14.07;12.47;;;;;;;;;;5054377;28;20186;-75
2021/08/19 06:31:03;;;;;;;13.50;12.00;;;;;;;;;;5049609;28;20227;-75
2021/08/19 06:33:29;;;;;;;13.53;12.23;;;;;;;;;;5060938;28;20198;-74
2021/08/19 06:35:54;;;;;;;14.17;11.90;;;;;;;;;;5052867;28;20175;-74
2021/08/19 06:38:19;;;;;;;15.03;12.87;;;;;;;;;;5056687;28;20206;-74
2021/08/19 06:40:44;;;;;;;13.70;12.03;;;;;;;;;;5052655;28;20565;-75
2021/08/19 06:43:10;;;;;;;16.60;14.07;;;;;;;;;;5052262;28;20213;-74
2021/08/19 06:45:35;;;;;;;13.80;12.40;;;;;;;;;;5053035;28;20593;-74
2021/08/19 06:48:00;;;;;;;19.40;13.13;;;;;;;;;;5061312;28;20199;-75
2021/08/19 06:50:25;;;;;;;16.27;13.03;;;;;;;;;;5046922;28;20183;-75
2021/08/19 06:52:50;;;;;;;14.13;12.53;;;;;;;;;;5058847;28;20184;-74
2021/08/19 06:55:16;;;;;;;14.23;11.27;;;;;;;;;;5052321;28;20194;-75
2021/08/19 06:57:41;;;;;;;13.10;11.80;;;;;;;;;;5062024;28;20195;-74
2021/08/19 07:00:07;;;;;;;15.10;13.43;;;;;;;;;;5057329;28;20187;-74
2021/08/19 07:02:33;;;;;;;15.80;14.30;;;;;;;;;;5052654;28;20187;-74
2021/08/19 07:04:58;;;;;;;13.53;12.00;;;;;;;;;;5048682;28;20440;-75
2021/08/19 07:07:28;;;;;;;17.27;14.50;;;;;;;;;;5047935;28;20217;-74
2021/08/19 07:09:53;;;;;;;15.40;12.80;;;;;;;;;;5056755;28;20734;-75
2021/08/19 07:12:18;;;;;;;16.47;12.57;;;;;;;;;;5055910;28;20437;-75
2021/08/19 07:14:43;;;;;;;18.47;13.00;;;;;;;;;;5050838;28;20191;-75
2021/08/19 07:17:09;;;;;;;15.47;13.00;;;;;;;;;;5054651;28;20207;-75
2021/08/19 07:19:34;;;;;;;15.40;13.80;;;;;;;;;;5048248;28;20175;-74
2021/08/19 07:22:00;;;;;;;17.13;15.40;;;;;;;;;;5052326;28;20330;-75
2021/08/19 07:24:25;;;;;;;17.30;15.60;;;;;;;;;;5060715;28;20190;-75
2021/08/19 07:26:50;;;;;;;17.40;15.60;;;;;;;;;;5061685;28;20481;-75
2021/08/19 07:29:15;;;;;;;19.30;16.10;;;;;;;;;;5058883;28;20179;-74
2021/08/19 07:31:41;;;;;;;16.47;14.33;;;;;;;;;;5060745;28;20182;-74
2021/08/19 07:34:06;;;;;;;20.83;15.40;;;;;;;;;;5066929;28;20229;-74
2021/08/19 07:36:32;;;;;;;18.17;16.23;;;;;;;;;;5062055;28;20609;-74
2021/08/19 07:39:02;;;;;;;21.60;17.60;;;;;;;;;;5064798;28;20224;-74
2021/08/19 07:41:28;;;;;;;17.57;15.70;;;;;;;;;;5060427;28;20225;-75
2021/08/19 07:43:53;;;;;;;18.17;15.50;;;;;;;;;;5057103;28;20421;-74
2021/08/19 07:46:18;;;;;;;19.10;16.10;;;;;;;;;;5058311;28;20211;-74
2021/08/19 07:48:44;;;;;;;18.93;14.70;;;;;;;;;;5062000;28;20179;-74
2021/08/19 07:51:09;;;;;;;15.77;14.10;;;;;;;;;;5056243;28;20600;-74
2021/08/19 07:53:35;;;;;;;15.67;14.00;;;;;;;;;;5057937;28;20429;-75
2021/08/19 07:56:01;;;;;;;19.43;14.90;;;;;;;;;;5051558;28;20609;-74
2021/08/19 07:58:26;;;;;;;16.40;13.87;;;;;;;;;;5057804;28;20183;-75
2021/08/19 08:00:51;;;;;;;15.70;13.53;;;;;;;;;;5060686;28;20472;-74
2021/08/19 08:03:16;;;;;;;19.77;15.70;;;;;;;;;;5059343;28;20674;-74
2021/08/19 08:05:42;;;;;;;14.13;12.63;;;;;;;;;;5057021;28;20248;-75
2021/08/19 08:08:10;;;;;;;13.70;11.80;;;;;;;;;;5057464;28;20299;-74
2021/08/19 08:10:38;;;;;;;15.07;13.23;;;;;;;;;;5058262;28;20266;-74
2021/08/19 08:13:04;;;;;;;12.63;11.10;;;;;;;;;;5059399;28;20425;-74
2021/08/19 08:15:29;;;;;;;13.47;12.10;;;;;;;;;;5060355;28;20434;-75
2021/08/19 08:17:54;;;;;;;11.20;10.10;;;;;;;;;;5064326;28;20869;-74
2021/08/19 08:20:20;;;;;;;12.00;9.83;;;;;;;;;;5062033;28;20207;-74
2021/08/19 08:22:46;;;;;;;9.80;8.90;;;;;;;;;;5055308;28;20194;-74
2021/08/19 08:25:12;;;;;;;8.60;7.80;;;;;;;;;;5065371;28;20191;-74
2021/08/19 08:27:49;;;;;;;9.80;8.17;;;;;;;;;;5054009;28;20477;-75
2021/08/19 08:30:14;;;;;;;7.50;6.80;;;;;;;;;;5063570;28;20206;-74
2021/08/19 08:32:39;;;;;;;6.90;5.13;;;;;;;;;;5054639;28;20517;-74
2021/08/19 08:35:06;;;;;;;15.43;6.10;;;;;;;;;;5056296;28;20183;-74
2021/08/19 08:37:32;;;;;;;6.80;5.40;;;;;;;;;;5060571;28;20209;-75
2021/08/19 08:39:57;;;;;;;6.67;5.97;;;;;;;;;;5066004;28;20421;-75
2021/08/19 08:42:22;;;;;;;6.87;5.60;;;;;;;;;;5053791;28;25589;-75
2021/08/19 08:44:48;;;;;;;7.70;5.50;;;;;;;;;;5052977;28;20554;-74
2021/08/19 08:47:13;;;;;;;5.83;5.23;;;;;;;;;;5050448;28;20590;-75
2021/08/19 08:49:40;;;;;;;7.90;5.97;;;;;;;;;;5061180;28;20286;-74
2021/08/19 08:52:06;;;;;;;6.60;5.77;;;;;;;;;;5058611;28;20262;-74
2021/08/19 08:54:32;;;;;;;7.07;6.37;;;;;;;;;;5066552;28;20988;-74
2021/08/19 08:56:57;;;;;;;7.00;6.30;;;;;;;;;;5055602;28;20789;-75
2021/08/19 08:59:22;;;;;;;7.50;5.53;;;;;;;;;;5056760;28;20206;-74
2021/08/19 09:01:47;;;;;;;8.03;5.27;;;;;;;;;;5049808;28;20803;-74
2021/08/19 09:04:12;;;;;;;7.73;6.10;;;;;;;;;;5058778;28;20218;-76
2021/08/19 09:06:39;;;;;;;7.40;6.23;;;;;;;;;;5055467;28;20207;-74
2021/08/19 09:09:17;;;;;;;11.23;6.40;;;;;;;;;;5053907;28;20636;-74
2021/08/19 09:11:53;;;;;;;7.10;6.00;;;;;;;;;;5054388;28;20428;-75
2021/08/19 09:14:27;;;;;;;7.97;6.37;;;;;;;;;;5059853;28;20434;-75
2021/08/19 09:16:52;;;;;;;6.30;5.30;;;;;;;;;;5053352;28;20457;-75
2021/08/19 09:19:18;;;;;;;6.73;5.73;;;;;;;;;;5058165;28;20978;-75
2021/08/19 09:21:49;;;;;;;7.80;6.60;;;;;;;;;;5050357;28;20191;-74
2021/08/19 09:24:16;;;;;;;6.80;5.53;;;;;;;;;;5058967;28;20885;-75
2021/08/19 09:26:42;;;;;;;8.23;5.40;;;;;;;;;;5056667;28;20546;-75
2021/08/19 09:29:13;;;;;;;5.70;5.20;;;;;;;;;;5063213;28;20516;-75
2021/08/19 09:31:38;;;;;;;7.67;5.90;;;;;;;;;;5057295;28;20184;-75
2021/08/19 09:34:03;;;;;;;8.00;5.40;;;;;;;;;;5056857;28;20446;-75
2021/08/19 09:36:31;;;;;;;6.97;6.03;;;;;;;;;;5049072;28;20210;-75
2021/08/19 09:38:56;;;;;;;6.97;6.27;;;;;;;;;;5055683;28;20183;-75
2021/08/19 09:41:21;;;;;;;6.00;5.40;;;;;;;;;;5059312;28;20774;-74
2021/08/19 09:43:47;;;;;;;6.10;5.50;;;;;;;;;;5059970;28;20562;-75
2021/08/19 09:46:14;;;;;;;7.77;5.57;;;;;;;;;;5046266;28;20207;-74
2021/08/19 09:48:40;;;;;;;7.60;5.17;;;;;;;;;;5052481;28;20852;-75
2021/08/19 09:51:19;;;;;;;5.93;4.40;;;;;;;;;;5052307;28;20434;-75
2021/08/19 09:53:44;;;;;;;7.43;4.77;;;;;;;;;;5051398;28;20183;-75
2021/08/19 09:56:11;;;;;;;7.47;5.47;;;;;;;;;;5051746;28;20836;-75
2021/08/19 09:58:37;;;;;;;5.50;5.00;;;;;;;;;;5057282;28;20179;-75
2021/08/19 10:01:02;;;;;;;7.33;5.13;;;;;;;;;;5059011;28;20511;-72
2021/08/19 10:03:27;;;;;;;6.80;5.00;;;;;;;;;;5053249;28;20268;-75
2021/08/19 10:05:53;;;;;;;5.43;4.40;;;;;;;;;;5061157;28;20219;-75
2021/08/19 10:08:19;;;;;;;4.37;3.80;;;;;;;;;;5050973;28;20195;-75
2021/08/19 10:10:44;;;;;;;6.20;3.90;;;;;;;;;;5052104;28;20437;-75
2021/08/19 10:13:11;;;;;;;3.57;3.30;;;;;;;;;;5052296;28;20167;-73
2021/08/19 10:15:36;;;;;;;4.57;3.30;;;;;;;;;;5060529;28;20538;-73
2021/08/19 10:18:01;;;;;;;4.53;3.83;;;;;;;;;;5049886;28;20449;-72
2021/08/19 10:20:40;;;;;;;4.17;3.47;;;;;;;;;;5062017;28;20175;-75
2021/08/19 10:23:06;;;;;;;5.63;4.27;;;;;;;;;;5061406;28;20191;-72
2021/08/19 10:25:32;;;;;;;3.47;3.17;;;;;;;;;;5060760;28;20459;-73
2021/08/19 10:28:14;;;;;;;6.67;3.30;;;;;;;;;;5055255;28;20442;-72
2021/08/19 10:30:52;;;;;;;5.30;3.73;;;;;;;;;;5057363;28;20175;-72
2021/08/19 10:33:36;;;;;;;5.40;4.07;;;;;;;;;;5064670;28;20413;-72
2021/08/19 10:36:24;;;;;;;5.67;4.30;;;;;;;;;;5062630;28;20419;-72
2021/08/19 10:38:49;;;;;;;4.00;3.40;;;;;;;;;;5064391;28;20528;-72
2021/08/19 10:41:29;;;;;;;5.10;3.73;;;;;;;;;;5056380;28;20492;-72
2021/08/19 10:44:04;;;;;;;4.43;3.73;;;;;;;;;;5053527;28;20185;-72
2021/08/19 10:46:40;;;;;;;6.37;3.00;;;;;;;;;;5057551;28;20457;-72
2021/08/19 10:49:05;;;;;;;6.27;3.77;;;;;;;;;;5056907;28;20485;-72
2021/08/19 10:51:31;;;;;;;4.50;3.20;;;;;;;;;;5053609;28;20517;-72
2021/08/19 10:53:58;;;;;;;5.00;3.60;;;;;;;;;;5058969;28;20274;-72
2021/08/19 10:56:44;;;;;;;6.83;3.87;;;;;;;;;;5054063;28;20198;-74
2021/08/19 10:59:39;;;;;;;7.67;4.00;;;;;;;;;;5060270;28;20466;-72
2021/08/19 11:02:04;;;;;;;6.23;3.97;;;;;;;;;;5059015;28;20548;-72
2021/08/19 11:04:42;;;;;;;7.17;4.07;;;;;;;;;;5054045;28;20873;-72
2021/08/19 11:07:09;;;;;;;13.63;4.43;;;;;;;;;;5061402;28;20210;-72
2021/08/19 11:09:35;;;;;;;5.93;4.03;;;;;;;;;;5056608;28;20510;-72
2021/08/19 11:12:07;;;;;;;5.57;4.33;;;;;;;;;;5054984;28;20529;-72
2021/08/19 11:14:33;;;;;;;8.40;5.47;;;;;;;;;;5058730;28;20258;-72
2021/08/19 11:17:00;;;;;;;5.73;4.50;;;;;;;;;;5054361;28;20457;-73
2021/08/19 11:19:26;;;;;;;5.10;4.00;;;;;;;;;;5058254;28;20278;-72
2021/08/19 11:21:54;;;;;;;5.40;4.73;;;;;;;;;;5055591;28;20496;-72
2021/08/19 11:24:19;;;;;;;4.83;4.33;;;;;;;;;;5057834;28;20784;-72
2021/08/19 11:26:58;;;;;;;5.37;4.60;;;;;;;;;;5060182;28;20480;-71
2021/08/19 11:29:31;;;;;;;7.60;5.17;;;;;;;;;;5059402;28;20232;-72
2021/08/19 11:31:56;;;;;;;9.97;5.40;;;;;;;;;;5062784;28;20425;-72
2021/08/19 11:34:22;;;;;;;6.83;5.00;;;;;;;;;;5058241;28;20528;-72
2021/08/19 11:36:49;;;;;;;6.53;4.60;;;;;;;;;;5058779;28;20211;-72
2021/08/19 11:39:15;;;;;;;6.70;4.73;;;;;;;;;;5054520;28;20176;-72
2021/08/19 11:41:40;;;;;;;7.17;5.20;;;;;;;;;;5052163;28;20764;-72
2021/08/19 11:44:06;;;;;;;7.33;5.43;;;;;;;;;;5054148;28;20183;-72
2021/08/19 11:46:32;;;;;;;7.27;5.40;;;;;;;;;;5059329;28;20229;-72
2021/08/19 11:49:02;;;;;;;6.13;5.20;;;;;;;;;;5058535;28;20421;-72
2021/08/19 11:51:30;;;;;;;6.30;5.57;;;;;;;;;;5054815;28;20179;-72
2021/08/19 11:53:57;;;;;;;7.10;5.57;;;;;;;;;;5059935;28;20486;-72
2021/08/19 11:56:25;;;;;;;7.90;5.33;;;;;;;;;;5058167;28;20979;-72
2021/08/19 11:58:52;;;;;;;7.70;5.13;;;;;;;;;;5057202;28;20524;-72
2021/08/19 12:01:17;;;;;;;6.33;4.30;;;;;;;;;;5052813;28;20454;-72
2021/08/19 12:03:44;;;;;;;5.73;4.77;;;;;;;;;;5061608;28;20441;-74
2021/08/19 12:06:10;;;;;;;8.60;5.10;;;;;;;;;;5056457;28;20591;-75
2021/08/19 12:08:37;;;;;;;8.27;5.73;;;;;;;;;;5053465;28;20426;-75
2021/08/19 12:11:04;;;;;;;11.07;5.77;;;;;;;;;;5055981;28;20430;-72
2021/08/19 12:13:29;;;;;;;9.40;5.90;;;;;;;;;;5053778;28;20473;-73
2021/08/19 12:15:57;;;;;;;9.13;5.70;;;;;;;;;;5059323;28;20456;-72
2021/08/19 12:18:26;;;;;;;6.93;5.30;;;;;;;;;;5054070;28;20179;-72
2021/08/19 12:20:52;;;;;;;6.13;4.70;;;;;;;;;;5058222;28;21335;-72
2021/08/19 12:23:21;;;;;;;5.57;3.97;;;;;;;;;;5056219;28;20433;-72
2021/08/19 12:25:46;;;;;;;7.57;4.23;;;;;;;;;;5058451;28;20450;-72
2021/08/19 12:28:12;;;;;;;8.93;4.53;;;;;;;;;;5051275;28;20499;-72
2021/08/19 12:30:54;;;;;;;6.87;5.23;;;;;;;;;;5063938;28;20571;-72
2021/08/19 12:33:27;;;;;;;7.20;4.70;;;;;;;;;;5057117;28;20261;-73
2021/08/19 12:36:06;;;;;;;9.77;5.60;;;;;;;;;;5060501;28;20437;-72
2021/08/19 12:38:32;;;;;;;7.77;5.53;;;;;;;;;;5060695;28;20511;-72
2021/08/19 12:41:09;;;;;;;9.30;5.17;;;;;;;;;;5057412;28;21029;-72
2021/08/19 12:43:34;;;;;;;6.63;4.73;;;;;;;;;;5053559;28;20199;-72
2021/08/19 12:46:04;;;;;;;7.57;5.43;;;;;;;;;;5058403;28;20450;-72
2021/08/19 12:48:29;;;;;;;13.10;5.50;;;;;;;;;;5059812;28;20665;-72
2021/08/19 12:51:14;;;;;;;7.83;5.87;;;;;;;;;;5050260;28;20429;-72
2021/08/19 12:53:59;;;;;;;7.50;5.30;;;;;;;;;;5053844;28;20233;-72
2021/08/19 12:56:24;;;;;;;5.53;4.47;;;;;;;;;;5058188;28;20461;-72
2021/08/19 12:58:49;;;;;;;9.53;5.97;;;;;;;;;;5056455;28;20449;-72
2021/08/19 13:01:14;;;;;;;8.67;5.20;;;;;;;;;;5057341;28;20205;-72
2021/08/19 13:03:40;;;;;;;12.17;5.00;;;;;;;;;;5052422;28;20186;-72
2021/08/19 13:06:05;;;;;;;10.30;5.60;;;;;;;;;;5053633;28;20825;-72
2021/08/19 13:08:30;;;;;;;8.70;6.20;;;;;;;;;;5056789;28;20176;-72
2021/08/19 13:10:55;;;;;;;10.90;6.10;;;;;;;;;;5064321;28;20529;-72
2021/08/19 13:13:23;;;;;;;12.10;6.20;;;;;;;;;;5061373;28;20537;-72
2021/08/19 13:15:48;;;;;;;9.77;5.73;;;;;;;;;;5057697;28;20187;-72
2021/08/19 13:18:14;;;;;;;8.17;6.07;;;;;;;;;;5051770;28;20460;-72
2021/08/19 13:20:39;;;;;;;8.90;6.40;;;;;;;;;;5054675;28;20190;-72
2021/08/19 13:23:05;;;;;;;9.40;5.80;;;;;;;;;;5052419;28;20180;-72
2021/08/19 13:25:30;;;;;;;8.50;5.80;;;;;;;;;;5054653;28;20282;-72
2021/08/19 13:27:56;;;;;;;6.93;5.90;;;;;;;;;;5054127;28;20480;-72
2021/08/19 13:30:21;;;;;;;12.53;6.23;;;;;;;;;;5050025;28;20175;-72
2021/08/19 13:32:47;;;;;;;10.40;5.40;;;;;;;;;;5052059;28;20167;-72
2021/08/19 13:35:13;;;;;;;7.97;5.73;;;;;;;;;;5059420;28;20254;-72
2021/08/19 13:37:40;;;;;;;8.90;5.93;;;;;;;;;;5060974;28;21234;-72
2021/08/19 13:40:05;;;;;;;7.87;5.67;;;;;;;;;;5061146;28;20716;-72
2021/08/19 13:42:30;;;;;;;7.47;5.63;;;;;;;;;;5053848;28;20437;-72
2021/08/19 13:44:56;;;;;;;7.77;4.60;;;;;;;;;;5050886;28;20211;-71
2021/08/19 13:47:21;;;;;;;6.63;4.40;;;;;;;;;;5047875;28;20250;-72
2021/08/19 13:49:46;;;;;;;7.13;4.10;;;;;;;;;;5050513;28;20210;-72
2021/08/19 13:52:11;;;;;;;7.00;4.20;;;;;;;;;;5049677;28;20180;-71
2021/08/19 13:54:37;;;;;;;6.03;4.90;;;;;;;;;;5050585;28;20178;-72
2021/08/19 13:57:03;;;;;;;6.73;4.77;;;;;;;;;;5051566;28;20207;-72
2021/08/19 13:59:28;;;;;;;7.70;5.37;;;;;;;;;;5052245;28;21002;-72
2021/08/19 14:01:53;;;;;;;11.03;5.07;;;;;;;;;;5052730;28;20198;-72
2021/08/19 14:04:18;;;;;;;7.50;5.60;;;;;;;;;;5054813;28;20207;-71
2021/08/19 14:06:45;;;;;;;9.50;4.60;;;;;;;;;;5052240;28;20227;-71
2021/08/19 14:09:10;;;;;;;7.67;4.93;;;;;;;;;;5057610;28;20566;-72
2021/08/19 14:11:35;;;;;;;10.13;4.83;;;;;;;;;;5056780;28;20731;-72
2021/08/19 14:14:01;;;;;;;7.47;5.00;;;;;;;;;;5063071;28;20248;-72
2021/08/19 14:16:27;;;;;;;10.00;5.53;;;;;;;;;;5055569;28;20204;-71
2021/08/19 14:18:52;;;;;;;6.90;4.60;;;;;;;;;;5059725;28;20793;-72
2021/08/19 14:21:17;;;;;;;6.20;4.47;;;;;;;;;;5057197;28;20238;-72
2021/08/19 14:23:43;;;;;;;6.40;4.27;;;;;;;;;;5055092;28;20289;-72
2021/08/19 14:26:10;;;;;;;6.07;4.77;;;;;;;;;;5056458;28;20388;-72
2021/08/19 14:28:35;;;;;;;7.07;4.37;;;;;;;;;;5058863;28;20183;-72
2021/08/19 14:31:01;;;;;;;5.87;4.43;;;;;;;;;;5062085;28;20516;-71
2021/08/19 14:33:26;;;;;;;6.00;4.77;;;;;;;;;;5058255;28;20810;-72